M I D A S
Marine Information and Data Acquisition System
Tripno 403 of the Zeeleeuw from 2002-12-03 11:20:06 to 2002-12-03 16:31:27
Back to CruiseResearch ActivitiesStationsMapUnderway DataData graphs

EquipmentUnitsComments
TimeDGPSUTC
LatitudeDGPSDM.mWGS84
LongitudeDGPSDM.mWGS84
SpeedMeteo Stationm/sRelative wind speed
DirectionMeteo StationdegRelative wind direction
TemperatureMeteo Stationdeg CelciusAir temperature
PressureMeteo StationPaAtmospheric pressure
HumidityMeteo Station%Relative humidity
Missing or incorrect values are displayed as -999
Metereological data collected by the RV Zeeleeuw from 2002-12-03 11:20:06 to 2002-12-03 16:31:27
                                                                                    Next 1000 lines
Time Latitude Longitude Speed Direction Temperature Pressure Humidity
2002-12-03 11:20:13 51°13.885 2°55.593 0.7 40 6.8 100950 89
2002-12-03 11:20:18 51°13.892 2°55.588 1 42 6.8 100950 89
2002-12-03 11:20:22 51°13.898 2°55.584 1.6 44 6.8 100950 89
2002-12-03 11:20:28 51°13.906 2°55.578 1.4 47 6.8 100950 89
2002-12-03 11:20:33 51°13.912 2°55.573 1.3 52 6.8 100950 89
2002-12-03 11:20:38 51°13.919 2°55.568 1.1 81 6.8 100950 89
2002-12-03 11:20:42 51°13.925 2°55.564 1.7 76 6.8 100950 89
2002-12-03 11:20:48 51°13.933 2°55.557 1.7 71 6.8 100950 89
2002-12-03 11:20:53 51°13.94 2°55.552 1.6 63 6.8 100950 89
2002-12-03 11:20:58 51°13.948 2°55.547 2 59 6.8 100950 89
2002-12-03 11:21:03 51°13.955 2°55.542 2 65 6.8 100950 89
2002-12-03 11:21:08 51°13.963 2°55.536 1.9 66 6.9 100950 89
2002-12-03 11:21:13 51°13.971 2°55.531 1.4 60 6.9 100950 89
2002-12-03 11:21:18 51°13.979 2°55.525 1.7 60 6.9 100950 89
2002-12-03 11:21:22 51°13.985 2°55.52 1.3 41 6.9 100950 89
2002-12-03 11:21:28 51°13.996 2°55.513 1.3 34 6.9 100950 89
2002-12-03 11:21:33 51°14.004 2°55.506 1.2 50 6.9 100950 89
2002-12-03 11:21:38 51°14.013 2°55.5 1.8 36 6.9 100950 89
2002-12-03 11:21:42 51°14.02 2°55.495 1.1 62 6.9 100950 89
2002-12-03 11:21:47 51°14.029 2°55.488 1.1 72 6.9 100950 89
2002-12-03 11:21:53 51°14.04 2°55.481 1.6 39 6.9 100950 89
2002-12-03 11:21:58 51°14.049 2°55.474 1.1 42 6.9 100950 89
2002-12-03 11:22:02 51°14.057 2°55.468 0.9 62 6.9 100950 89
2002-12-03 11:22:08 51°14.068 2°55.461 1.1 60 6.9 100950 89
2002-12-03 11:22:13 51°14.078 2°55.454 1.1 74 6.9 100950 89
2002-12-03 11:22:18 51°14.087 2°55.447 1.3 71 6.9 100950 89
2002-12-03 11:22:22 51°14.095 2°55.442 1.5 67 6.9 100950 89
2002-12-03 11:22:27 51°14.105 2°55.435 1.4 66 6.9 100950 89
2002-12-03 11:22:33 51°14.116 2°55.427 1.4 66 6.9 100950 89
2002-12-03 11:22:38 51°14.126 2°55.42 1.5 66 6.9 100950 89
2002-12-03 11:22:42 51°14.133 2°55.414 1.6 63 6.9 100950 89
2002-12-03 11:22:48 51°14.146 2°55.404 1.1 57 6.9 100950 89
2002-12-03 11:22:53 51°14.156 2°55.395 0.8 63 6.9 100950 89
2002-12-03 11:22:58 51°14.167 2°55.386 0.7 51 6.9 100950 89
2002-12-03 11:23:02 51°14.175 2°55.378 0.6 49 6.9 100950 89
2002-12-03 11:23:07 51°14.186 2°55.368 0.5 53 6.9 100950 89
2002-12-03 11:23:13 51°14.2 2°55.354 0.2 38 6.9 100950 89
2002-12-03 11:23:18 51°14.21 2°55.342 0.3 12 6.9 100950 88
2002-12-03 11:23:22 51°14.219 2°55.332 0.3 348 6.9 100950 88
2002-12-03 11:23:28 51°14.231 2°55.316 2 291 6.9 100950 88
2002-12-03 11:23:33 51°14.241 2°55.301 1.8 290 6.9 100950 88
2002-12-03 11:23:38 51°14.251 2°55.287 1.2 312 6.9 100940 88
2002-12-03 11:23:43 51°14.261 2°55.271 0.9 329 6.9 100940 88
2002-12-03 11:23:48 51°14.271 2°55.255 2.4 295 6.9 100940 88
2002-12-03 11:23:53 51°14.28 2°55.238 2.7 292 6.9 100940 88
2002-12-03 11:23:58 51°14.289 2°55.222 2.7 273 6.9 100940 88
2002-12-03 11:24:03 51°14.298 2°55.205 2.4 279 6.9 100940 88
2002-12-03 11:24:08 51°14.307 2°55.187 2.3 294 6.9 100950 88
2002-12-03 11:24:13 51°14.316 2°55.169 2.4 303 6.9 100950 88
2002-12-03 11:24:18 51°14.325 2°55.152 2.3 289 6.9 100950 88
2002-12-03 11:24:22 51°14.331 2°55.137 2.9 276 6.9 100950 88
2002-12-03 11:24:28 51°14.342 2°55.116 2.6 273 6.9 100950 88
2002-12-03 11:24:33 51°14.35 2°55.098 3.6 290 6.9 100950 88
2002-12-03 11:24:38 51°14.358 2°55.08 3.3 288 6.9 100940 88
2002-12-03 11:24:42 51°14.365 2°55.065 2.7 292 6.9 100940 88
2002-12-03 11:24:48 51°14.377 2°55.044 2.6 297 6.9 100940 88
2002-12-03 11:24:53 51°14.387 2°55.026 2.4 291 6.9 100940 88
2002-12-03 11:24:58 51°14.398 2°55.01 2.1 307 6.9 100940 88
2002-12-03 11:25:02 51°14.407 2°54.998 1.6 304 6.9 100940 88
2002-12-03 11:25:08 51°14.423 2°54.981 1.8 285 6.9 100940 88
2002-12-03 11:25:13 51°14.436 2°54.968 1.2 282 6.9 100940 88
2002-12-03 11:25:18 51°14.449 2°54.954 1.2 280 6.9 100940 88
2002-12-03 11:25:22 51°14.46 2°54.943 1.2 290 6.9 100940 88
2002-12-03 11:25:28 51°14.475 2°54.926 1.3 291 6.9 100940 88
2002-12-03 11:25:33 51°14.487 2°54.91 1.4 285 6.9 100940 88
2002-12-03 11:25:38 51°14.498 2°54.895 1.7 305 6.9 100940 88
2002-12-03 11:25:42 51°14.507 2°54.881 2.4 304 6.9 100940 88
2002-12-03 11:25:48 51°14.52 2°54.861 2.1 299 6.9 100940 88
2002-12-03 11:25:53 51°14.53 2°54.843 2.4 297 6.9 100940 88
2002-12-03 11:25:58 51°14.541 2°54.825 2 304 6.9 100940 88
2002-12-03 11:26:02 51°14.549 2°54.81 1.4 322 6.9 100940 88
2002-12-03 11:26:08 51°14.561 2°54.789 1.2 305 6.9 100940 88
2002-12-03 11:26:12 51°14.57 2°54.775 0.8 337 6.9 100940 88
2002-12-03 11:26:18 51°14.582 2°54.753 1.4 355 7 100940 88
2002-12-03 11:26:22 51°14.59 2°54.739 0.8 345 7 100940 88
2002-12-03 11:26:28 51°14.603 2°54.717 0.5 341 7 100940 88
2002-12-03 11:26:33 51°14.613 2°54.699 0.7 329 7 100940 88
2002-12-03 11:26:38 51°14.624 2°54.68 1 344 7.1 100940 88
2002-12-03 11:26:42 51°14.632 2°54.665 1.4 324 7.1 100940 88
2002-12-03 11:26:48 51°14.645 2°54.643 1.6 321 7 100940 88
2002-12-03 11:26:53 51°14.656 2°54.624 0.8 315 7 100940 88
2002-12-03 11:26:58 51°14.667 2°54.604 1.7 298 7 100940 88
2002-12-03 11:27:02 51°14.676 2°54.589 1.3 304 7 100940 88
2002-12-03 11:27:08 51°14.689 2°54.566 1.7 298 7 100940 88
2002-12-03 11:27:13 51°14.7 2°54.546 1.6 301 7 100940 88
2002-12-03 11:27:18 51°14.711 2°54.526 1.8 315 7 100940 88
2002-12-03 11:27:22 51°14.72 2°54.51 1.5 279 7 100940 88
2002-12-03 11:27:28 51°14.733 2°54.486 2 286 7 100940 88
2002-12-03 11:27:33 51°14.744 2°54.465 2.6 281 7 100940 88
2002-12-03 11:27:38 51°14.754 2°54.444 3.2 286 7 100940 88
2002-12-03 11:27:43 51°14.764 2°54.423 3.2 286 7 100940 88
2002-12-03 11:27:48 51°14.775 2°54.403 3 286 7 100940 88
2002-12-03 11:27:53 51°14.786 2°54.383 3.2 294 7 100940 88
2002-12-03 11:27:58 51°14.797 2°54.362 3.1 286 7 100940 88
2002-12-03 11:28:02 51°14.805 2°54.346 3.7 296 7 100940 88
2002-12-03 11:28:08 51°14.818 2°54.321 3.4 296 7 100940 88
2002-12-03 11:28:13 51°14.829 2°54.3 3 300 7 100940 88
2002-12-03 11:28:18 51°14.839 2°54.279 3.3 297 7.1 100940 88
2002-12-03 11:28:22 51°14.847 2°54.262 3.6 304 7.1 100940 88
2002-12-03 11:28:28 51°14.859 2°54.237 3.7 305 7.1 100940 88
2002-12-03 11:28:33 51°14.869 2°54.215 3.1 313 7.1 100940 88
2002-12-03 11:28:38 51°14.879 2°54.193 3.3 304 7.1 100930 88
2002-12-03 11:28:42 51°14.886 2°54.176 3.3 301 7.1 100930 88
2002-12-03 11:28:48 51°14.898 2°54.15 4 294 7.1 100940 88
2002-12-03 11:28:53 51°14.907 2°54.127 3.8 290 7.1 100940 88
2002-12-03 11:28:58 51°14.917 2°54.105 4.3 296 7.1 100940 88
2002-12-03 11:29:02 51°14.925 2°54.087 4.2 295 7.1 100940 88
2002-12-03 11:29:07 51°14.934 2°54.066 3.7 303 7.1 100930 88
2002-12-03 11:29:13 51°14.946 2°54.039 4.7 298 7.1 100930 88
2002-12-03 11:29:18 51°14.956 2°54.017 4.7 303 7.1 100940 88
2002-12-03 11:29:22 51°14.964 2°53.999 5.6 297 7.1 100940 88
2002-12-03 11:29:28 51°14.975 2°53.972 5.7 301 7.2 100940 88
2002-12-03 11:29:33 51°14.984 2°53.949 5.7 296 7.2 100940 88
2002-12-03 11:29:38 51°14.993 2°53.926 5.7 294 7.2 100930 88
2002-12-03 11:29:42 51°14.999 2°53.907 5.4 301 7.2 100930 88
2002-12-03 11:29:48 51°15.009 2°53.878 4.4 301 7.2 100940 88
2002-12-03 11:29:53 51°15.018 2°53.854 5.2 297 7.2 100940 88
2002-12-03 11:29:58 51°15.026 2°53.829 5.4 299 7.2 100940 88
2002-12-03 11:30:03 51°15.036 2°53.805 4.8 300 7.2 100940 88
2002-12-03 11:30:08 51°15.045 2°53.781 4.9 295 7.2 100940 88
2002-12-03 11:30:13 51°15.054 2°53.756 4.9 295 7.2 100940 88
2002-12-03 11:30:18 51°15.063 2°53.732 4.3 297 7.2 100940 88
2002-12-03 11:30:22 51°15.07 2°53.712 4.7 293 7.2 100940 88
2002-12-03 11:30:28 51°15.08 2°53.683 4.2 292 7.2 100940 88
2002-12-03 11:30:33 51°15.089 2°53.659 4.6 282 7.2 100940 88
2002-12-03 11:30:38 51°15.097 2°53.634 4.2 290 7.2 100940 88
2002-12-03 11:30:42 51°15.104 2°53.615 3.7 289 7.2 100940 88
2002-12-03 11:30:48 51°15.115 2°53.586 4 290 7.2 100940 88
2002-12-03 11:30:53 51°15.125 2°53.562 4 274 7.2 100940 88
2002-12-03 11:30:58 51°15.135 2°53.537 4.8 286 7.2 100940 88
2002-12-03 11:31:03 51°15.144 2°53.512 4.8 289 7.2 100940 88
2002-12-03 11:31:08 51°15.152 2°53.487 4.7 291 7.2 100940 88
2002-12-03 11:31:13 51°15.16 2°53.463 5.2 285 7.2 100940 88
2002-12-03 11:31:18 51°15.167 2°53.438 5 286 7.2 100940 88
2002-12-03 11:31:22 51°15.174 2°53.418 5.4 291 7.2 100940 88
2002-12-03 11:31:28 51°15.183 2°53.387 4.6 286 7.2 100940 88
2002-12-03 11:31:33 51°15.192 2°53.362 6.1 294 7.2 100940 88
2002-12-03 11:31:38 51°15.199 2°53.337 5.4 284 7.2 100940 88
2002-12-03 11:31:42 51°15.205 2°53.316 6.1 293 7.2 100940 88
2002-12-03 11:31:48 51°15.214 2°53.285 6.2 289 7.2 100940 88
2002-12-03 11:31:53 51°15.221 2°53.26 5.7 295 7.2 100940 88
2002-12-03 11:31:58 51°15.228 2°53.234 5.5 289 7.2 100940 88
2002-12-03 11:32:03 51°15.235 2°53.208 5.8 279 7.2 100940 88
2002-12-03 11:32:08 51°15.241 2°53.183 5.6 293 7.2 100940 88
2002-12-03 11:32:12 51°15.246 2°53.162 5.9 284 7.2 100940 88
2002-12-03 11:32:18 51°15.254 2°53.132 5.7 285 7.2 100940 88
2002-12-03 11:32:23 51°15.26 2°53.106 6.2 284 7.2 100940 88
2002-12-03 11:32:28 51°15.267 2°53.081 6 285 7.2 100950 88
2002-12-03 11:32:33 51°15.272 2°53.055 5.5 281 7.2 100950 88
2002-12-03 11:32:38 51°15.278 2°53.029 5.7 280 7.3 100940 88
2002-12-03 11:32:42 51°15.282 2°53.008 5.7 283 7.3 100940 88
2002-12-03 11:32:48 51°15.288 2°52.977 6 281 7.3 100940 88
2002-12-03 11:32:53 51°15.292 2°52.951 6.3 286 7.3 100940 88
2002-12-03 11:32:58 51°15.298 2°52.925 6.5 285 7.3 100950 88
2002-12-03 11:33:02 51°15.301 2°52.905 7 285 7.3 100950 88
2002-12-03 11:33:08 51°15.307 2°52.874 6.6 277 7.3 100950 88
2002-12-03 11:33:13 51°15.312 2°52.847 6.4 289 7.3 100950 88
2002-12-03 11:33:17 51°15.316 2°52.826 5.9 287 7.3 100950 88
2002-12-03 11:33:22 51°15.321 2°52.801 5.8 286 7.3 100950 88
2002-12-03 11:33:28 51°15.327 2°52.77 5.7 281 7.3 100950 88
2002-12-03 11:33:33 51°15.333 2°52.744 6.3 271 7.3 100950 88
2002-12-03 11:33:38 51°15.339 2°52.719 6.5 277 7.3 100940 88
2002-12-03 11:33:42 51°15.343 2°52.698 6.7 278 7.3 100940 88
2002-12-03 11:33:48 51°15.349 2°52.667 6.6 274 7.3 100950 87
2002-12-03 11:33:53 51°15.354 2°52.641 6.7 285 7.3 100950 87
2002-12-03 11:33:58 51°15.359 2°52.615 6.1 284 7.3 100940 87
2002-12-03 11:34:02 51°15.363 2°52.595 6 283 7.3 100940 87
2002-12-03 11:34:08 51°15.369 2°52.563 6.8 278 7.3 100950 87
2002-12-03 11:34:13 51°15.374 2°52.537 7.6 278 7.3 100950 87
2002-12-03 11:34:18 51°15.378 2°52.512 7.7 281 7.3 100950 87
2002-12-03 11:34:22 51°15.382 2°52.491 7.5 279 7.3 100950 87
2002-12-03 11:34:28 51°15.388 2°52.46 7.5 283 7.2 100940 87
2002-12-03 11:34:33 51°15.392 2°52.433 6.5 277 7.2 100940 87
2002-12-03 11:34:38 51°15.396 2°52.407 6.3 283 7.2 100950 87
2002-12-03 11:34:42 51°15.398 2°52.386 6.7 267 7.2 100950 87
2002-12-03 11:34:48 51°15.402 2°52.355 6.7 279 7.2 100940 87
2002-12-03 11:34:53 51°15.405 2°52.328 6.6 275 7.2 100940 87
2002-12-03 11:34:58 51°15.407 2°52.301 6.7 272 7.2 100940 87
2002-12-03 11:35:02 51°15.41 2°52.28 7.3 280 7.2 100940 87
2002-12-03 11:35:08 51°15.413 2°52.248 7.3 276 7.3 100950 87
2002-12-03 11:35:12 51°15.415 2°52.227 7.8 278 7.3 100950 87
2002-12-03 11:35:18 51°15.418 2°52.195 7.6 279 7.3 100950 87
2002-12-03 11:35:22 51°15.419 2°52.174 7.1 283 7.3 100950 87
2002-12-03 11:35:28 51°15.421 2°52.142 7.5 279 7.3 100940 87
2002-12-03 11:35:33 51°15.422 2°52.116 6.7 283 7.3 100940 87
2002-12-03 11:35:38 51°15.423 2°52.089 6.4 279 7.3 100940 87
2002-12-03 11:35:42 51°15.424 2°52.068 7 272 7.3 100940 87
2002-12-03 11:35:48 51°15.426 2°52.036 8 276 7.2 100950 87
2002-12-03 11:35:53 51°15.427 2°52.009 8.4 278 7.2 100950 87
2002-12-03 11:35:58 51°15.427 2°51.982 7.9 277 7.2 100950 87
2002-12-03 11:36:02 51°15.427 2°51.961 7.7 281 7.2 100950 87
2002-12-03 11:36:08 51°15.427 2°51.929 7.4 281 7.2 100940 87
2002-12-03 11:36:13 51°15.427 2°51.903 7.3 277 7.2 100940 87
2002-12-03 11:36:18 51°15.427 2°51.876 7.4 276 7.3 100940 87
2002-12-03 11:36:22 51°15.426 2°51.855 8.1 277 7.3 100940 87
2002-12-03 11:36:28 51°15.426 2°51.824 8.6 274 7.2 100940 87
2002-12-03 11:36:33 51°15.426 2°51.797 8.4 277 7.2 100940 87
2002-12-03 11:36:38 51°15.425 2°51.771 7.7 275 7.2 100930 87
2002-12-03 11:36:42 51°15.425 2°51.749 8.3 281 7.2 100930 87
2002-12-03 11:36:48 51°15.424 2°51.718 8 279 7.3 100930 87
2002-12-03 11:36:52 51°15.424 2°51.697 7.9 279 7.3 100930 87
2002-12-03 11:36:58 51°15.422 2°51.665 8.4 279 7.2 100930 87
2002-12-03 11:37:03 51°15.422 2°51.637 7.9 279 7.2 100930 87
2002-12-03 11:37:08 51°15.421 2°51.609 7.8 282 7.2 100930 87
2002-12-03 11:37:13 51°15.42 2°51.581 8.2 277 7.2 100930 87
2002-12-03 11:37:18 51°15.419 2°51.554 8 275 7.2 100930 87
2002-12-03 11:37:22 51°15.418 2°51.532 8.2 274 7.2 100930 87
2002-12-03 11:37:28 51°15.417 2°51.5 7.4 273 7.2 100930 87
2002-12-03 11:37:33 51°15.415 2°51.474 7.7 272 7.2 100930 87
2002-12-03 11:37:38 51°15.414 2°51.447 8.7 270 7.2 100930 87
2002-12-03 11:37:42 51°15.411 2°51.426 8.4 272 7.2 100930 87
2002-12-03 11:37:48 51°15.409 2°51.395 8.4 273 7.2 100940 87
2002-12-03 11:37:53 51°15.406 2°51.369 8.7 277 7.2 100940 87
2002-12-03 11:37:58 51°15.404 2°51.342 9 278 7.2 100930 87
2002-12-03 11:38:02 51°15.403 2°51.321 8.9 279 7.2 100930 87
2002-12-03 11:38:08 51°15.4 2°51.29 7.9 280 7.2 100930 87
2002-12-03 11:38:13 51°15.398 2°51.263 8.8 278 7.2 100930 87
2002-12-03 11:38:18 51°15.395 2°51.237 8.6 278 7.2 100930 87
2002-12-03 11:38:22 51°15.393 2°51.216 8.6 268 7.2 100930 87
2002-12-03 11:38:28 51°15.389 2°51.185 8.7 272 7.2 100940 88
2002-12-03 11:38:33 51°15.385 2°51.159 9.4 268 7.2 100940 88
2002-12-03 11:38:38 51°15.381 2°51.133 9.9 271 7.2 100930 88
2002-12-03 11:38:42 51°15.377 2°51.113 9.9 272 7.2 100930 88
2002-12-03 11:38:48 51°15.372 2°51.082 9 276 7.2 100930 88
2002-12-03 11:38:53 51°15.367 2°51.056 9.4 275 7.2 100930 88
2002-12-03 11:38:58 51°15.362 2°51.03 8.9 274 7.3 100930 88
2002-12-03 11:39:02 51°15.358 2°51.01 9.3 276 7.3 100930 88
2002-12-03 11:39:08 51°15.352 2°50.978 8.8 271 7.2 100930 88
2002-12-03 11:39:13 51°15.346 2°50.953 9.6 273 7.2 100930 88
2002-12-03 11:39:18 51°15.34 2°50.927 9.8 275 7.2 100930 88
2002-12-03 11:39:22 51°15.336 2°50.906 10 272 7.2 100930 88
2002-12-03 11:39:28 51°15.331 2°50.876 10.3 273 7.2 100930 88
2002-12-03 11:39:33 51°15.326 2°50.85 9.8 270 7.2 100930 88
2002-12-03 11:39:38 51°15.321 2°50.824 10.1 278 7.3 100930 88
2002-12-03 11:39:42 51°15.318 2°50.803 10.4 273 7.3 100930 88
2002-12-03 11:39:48 51°15.312 2°50.772 10.3 279 7.2 100930 88
2002-12-03 11:39:53 51°15.306 2°50.747 10 277 7.2 100930 88
2002-12-03 11:39:58 51°15.3 2°50.721 10.5 278 7.3 100930 88
2002-12-03 11:40:02 51°15.296 2°50.7 10.1 275 7.3 100930 88
2002-12-03 11:40:08 51°15.291 2°50.669 10.4 280 7.2 100920 88
2002-12-03 11:40:13 51°15.288 2°50.643 9.9 275 7.2 100920 88
2002-12-03 11:40:18 51°15.284 2°50.617 10.1 277 7.2 100920 88
2002-12-03 11:40:22 51°15.28 2°50.596 10 273 7.2 100920 88
2002-12-03 11:40:28 51°15.275 2°50.565 9.8 277 7.2 100930 88
2002-12-03 11:40:33 51°15.269 2°50.539 10 281 7.2 100930 88
2002-12-03 11:40:38 51°15.263 2°50.513 9.6 277 7.3 100930 88
2002-12-03 11:40:42 51°15.258 2°50.492 9.7 276 7.3 100930 88
2002-12-03 11:40:48 51°15.252 2°50.462 9.9 276 7.3 100930 88
2002-12-03 11:40:53 51°15.248 2°50.436 9.8 279 7.3 100930 88
2002-12-03 11:40:58 51°15.244 2°50.41 9.4 277 7.3 100920 87
2002-12-03 11:41:02 51°15.241 2°50.39 9.6 273 7.3 100920 87
2002-12-03 11:41:08 51°15.238 2°50.359 10.2 281 7.3 100930 87
2002-12-03 11:41:13 51°15.235 2°50.334 9.8 278 7.3 100930 87
2002-12-03 11:41:18 51°15.231 2°50.308 10.6 281 7.3 100930 87
2002-12-03 11:41:22 51°15.226 2°50.287 9.9 273 7.3 100930 87
2002-12-03 11:41:28 51°15.22 2°50.256 10.1 276 7.3 100930 87
2002-12-03 11:41:33 51°15.215 2°50.231 10.4 277 7.3 100930 87
2002-12-03 11:41:38 51°15.21 2°50.205 9.9 281 7.3 100920 88
2002-12-03 11:41:42 51°15.207 2°50.184 9.9 277 7.3 100920 88
2002-12-03 11:41:48 51°15.201 2°50.154 10 279 7.3 100920 88
2002-12-03 11:41:53 51°15.196 2°50.128 9.7 281 7.3 100920 88
2002-12-03 11:41:58 51°15.192 2°50.102 9.2 281 7.3 100920 88
2002-12-03 11:42:02 51°15.187 2°50.082 9.7 279 7.3 100920 88
2002-12-03 11:42:08 51°15.181 2°50.051 9.8 275 7.3 100930 88
2002-12-03 11:42:13 51°15.177 2°50.025 9.5 275 7.3 100930 88
2002-12-03 11:42:18 51°15.172 2°49.999 10.9 277 7.3 100930 87
2002-12-03 11:42:22 51°15.168 2°49.979 10.3 278 7.3 100930 87
2002-12-03 11:42:28 51°15.163 2°49.948 10.2 279 7.2 100930 88
2002-12-03 11:42:33 51°15.158 2°49.922 10 281 7.2 100930 88
2002-12-03 11:42:38 51°15.153 2°49.896 10.2 282 7.3 100930 88
2002-12-03 11:42:42 51°15.15 2°49.876 10 282 7.3 100930 88
2002-12-03 11:42:48 51°15.144 2°49.845 9.9 276 7.4 100920 88
2002-12-03 11:42:53 51°15.141 2°49.819 10.9 283 7.4 100920 88
2002-12-03 11:42:58 51°15.138 2°49.793 10.9 280 7.3 100920 88
2002-12-03 11:43:02 51°15.134 2°49.773 10.9 282 7.3 100920 88
2002-12-03 11:43:08 51°15.129 2°49.743 11.1 277 7.3 100930 88
2002-12-03 11:43:13 51°15.125 2°49.717 10.8 278 7.3 100930 88
2002-12-03 11:43:18 51°15.121 2°49.69 11.2 278 7.3 100920 88
2002-12-03 11:43:22 51°15.118 2°49.669 11.1 281 7.3 100920 88
2002-12-03 11:43:28 51°15.113 2°49.638 10.6 278 7.3 100930 88
2002-12-03 11:43:33 51°15.109 2°49.612 10.3 278 7.3 100930 88
2002-12-03 11:43:38 51°15.105 2°49.586 10.3 278 7.3 100920 87
2002-12-03 11:43:42 51°15.102 2°49.565 10.6 280 7.3 100920 87
2002-12-03 11:43:48 51°15.097 2°49.534 10.2 276 7.2 100920 87
2002-12-03 11:43:53 51°15.093 2°49.508 10.1 280 7.2 100920 87
2002-12-03 11:43:58 51°15.089 2°49.481 10.5 280 7.2 100920 87
2002-12-03 11:44:02 51°15.085 2°49.46 10.9 279 7.2 100920 87
2002-12-03 11:44:08 51°15.08 2°49.429 9.9 278 7.2 100920 87
2002-12-03 11:44:13 51°15.076 2°49.403 10.4 280 7.2 100920 87
2002-12-03 11:44:17 51°15.072 2°49.382 10 278 7.2 100920 87
2002-12-03 11:44:23 51°15.067 2°49.351 10.9 273 7.2 100920 87
2002-12-03 11:44:28 51°15.063 2°49.325 10.7 278 7.2 100920 87
2002-12-03 11:44:33 51°15.059 2°49.299 10.9 281 7.2 100920 87
2002-12-03 11:44:38 51°15.054 2°49.272 10.8 279 7.2 100920 87
2002-12-03 11:44:42 51°15.051 2°49.251 9.9 285 7.2 100920 87
2002-12-03 11:44:48 51°15.046 2°49.22 9.8 285 7.2 100920 88
2002-12-03 11:44:53 51°15.042 2°49.194 9.7 283 7.2 100920 88
2002-12-03 11:44:58 51°15.038 2°49.167 9.3 279 7.2 100920 87
2002-12-03 11:45:02 51°15.035 2°49.146 9.4 277 7.2 100920 87
2002-12-03 11:45:08 51°15.032 2°49.113 9.7 281 7.2 100930 87
2002-12-03 11:45:13 51°15.03 2°49.086 10.1 275 7.2 100930 87
2002-12-03 11:45:18 51°15.028 2°49.059 10.3 278 7.2 100930 88
2002-12-03 11:45:23 51°15.027 2°49.031 9.7 280 7.2 100930 88
2002-12-03 11:45:28 51°15.026 2°49.005 9.5 283 7.3 100930 88
2002-12-03 11:45:33 51°15.025 2°48.977 9.5 282 7.3 100930 88
2002-12-03 11:45:38 51°15.024 2°48.95 10.2 283 7.3 100920 88
2002-12-03 11:45:42 51°15.023 2°48.928 10.1 287 7.3 100920 88
2002-12-03 11:45:48 51°15.022 2°48.895 10 288 7.3 100930 88
2002-12-03 11:45:53 51°15.021 2°48.867 8.9 283 7.3 100930 88
2002-12-03 11:45:58 51°15.02 2°48.84 9.3 285 7.3 100920 88
2002-12-03 11:46:02 51°15.02 2°48.818 8.9 282 7.3 100920 88
2002-12-03 11:46:08 51°15.019 2°48.785 9.7 289 7.3 100920 88
2002-12-03 11:46:13 51°15.019 2°48.758 9.3 285 7.3 100920 88
2002-12-03 11:46:18 51°15.018 2°48.731 8.5 283 7.3 100930 88
2002-12-03 11:46:22 51°15.018 2°48.709 9.8 282 7.3 100930 88
2002-12-03 11:46:28 51°15.017 2°48.676 9.2 280 7.2 100920 88
2002-12-03 11:46:33 51°15.016 2°48.649 10.5 285 7.2 100920 88
2002-12-03 11:46:38 51°15.015 2°48.621 9.8 283 7.2 100930 88
2002-12-03 11:46:42 51°15.014 2°48.6 9.1 281 7.2 100930 88
2002-12-03 11:46:48 51°15.012 2°48.567 10 281 7.2 100930 88
2002-12-03 11:46:53 51°15.01 2°48.54 10.3 284 7.2 100930 88
2002-12-03 11:46:58 51°15.006 2°48.513 10.4 283 7.2 100930 88
2002-12-03 11:47:02 51°15.002 2°48.491 10.8 284 7.2 100930 88
2002-12-03 11:47:08 51°14.998 2°48.459 9.8 286 7.2 100930 87
2002-12-03 11:47:13 51°14.996 2°48.433 10 282 7.2 100930 87
2002-12-03 11:47:18 51°14.994 2°48.406 9.3 283 7.2 100920 87
2002-12-03 11:47:22 51°14.992 2°48.385 10.1 280 7.2 100920 87
2002-12-03 11:47:28 51°14.988 2°48.353 9.9 282 7.2 100930 87
2002-12-03 11:47:33 51°14.985 2°48.326 9.7 285 7.2 100930 87
2002-12-03 11:47:38 51°14.982 2°48.299 11.7 284 7.2 100920 87
2002-12-03 11:47:42 51°14.98 2°48.278 10.6 285 7.2 100920 87
2002-12-03 11:47:48 51°14.976 2°48.246 10.3 287 7.2 100920 87
2002-12-03 11:47:53 51°14.974 2°48.219 10 283 7.2 100920 87
2002-12-03 11:47:58 51°14.971 2°48.192 10.2 282 7.2 100920 88
2002-12-03 11:48:02 51°14.969 2°48.171 10.5 283 7.2 100920 88
2002-12-03 11:48:08 51°14.966 2°48.139 10.8 284 7.2 100920 87
2002-12-03 11:48:13 51°14.964 2°48.112 10.6 285 7.2 100920 87
2002-12-03 11:48:18 51°14.961 2°48.086 10.3 283 7.2 100920 87
2002-12-03 11:48:22 51°14.958 2°48.065 9.9 284 7.2 100920 87
2002-12-03 11:48:28 51°14.954 2°48.033 10.4 281 7.2 100930 87
2002-12-03 11:48:33 51°14.951 2°48.007 10 283 7.2 100930 87
2002-12-03 11:48:38 51°14.947 2°47.981 10.6 278 7.2 100920 87
2002-12-03 11:48:42 51°14.944 2°47.96 10.2 280 7.2 100920 87
2002-12-03 11:48:48 51°14.939 2°47.929 10.5 277 7.2 100930 87
2002-12-03 11:48:53 51°14.936 2°47.903 10.1 278 7.2 100930 87
2002-12-03 11:48:58 51°14.932 2°47.877 11.3 280 7.2 100930 87
2002-12-03 11:49:02 51°14.929 2°47.856 10.7 282 7.2 100930 87
2002-12-03 11:49:07 51°14.925 2°47.829 10.6 285 7.2 100930 87
2002-12-03 11:49:13 51°14.921 2°47.798 10.1 283 7.2 100930 87
2002-12-03 11:49:18 51°14.917 2°47.772 10 283 7.2 100930 87
2002-12-03 11:49:22 51°14.914 2°47.751 8.6 283 7.2 100930 87
2002-12-03 11:49:28 51°14.91 2°47.72 9.5 283 7.2 100920 87
2002-12-03 11:49:33 51°14.906 2°47.694 9.9 282 7.2 100920 87
2002-12-03 11:49:38 51°14.902 2°47.667 9.9 277 7.2 100930 87
2002-12-03 11:49:42 51°14.9 2°47.646 10.2 277 7.2 100930 87
2002-12-03 11:49:48 51°14.896 2°47.615 10.4 280 7.2 100930 87
2002-12-03 11:49:53 51°14.892 2°47.589 10.4 280 7.2 100930 87
2002-12-03 11:49:58 51°14.888 2°47.563 9.4 277 7.2 100930 87
2002-12-03 11:50:02 51°14.885 2°47.542 9.4 280 7.2 100930 87
2002-12-03 11:50:08 51°14.88 2°47.511 9.5 283 7.2 100930 87
2002-12-03 11:50:12 51°14.878 2°47.49 9.7 281 7.2 100930 87
2002-12-03 11:50:18 51°14.873 2°47.458 8.7 283 7.2 100930 87
2002-12-03 11:50:22 51°14.87 2°47.437 9.4 278 7.2 100930 87
2002-12-03 11:50:28 51°14.866 2°47.406 10.2 281 7.2 100930 87
2002-12-03 11:50:34 51°14.862 2°47.375 10.5 275 7.2 100930 87
2002-12-03 11:50:38 51°14.859 2°47.354 10 278 7.2 100930 87
2002-12-03 11:50:42 51°14.856 2°47.333 9.9 279 7.2 100930 87
2002-12-03 11:50:48 51°14.852 2°47.301 10.3 278 7.2 100930 87
2002-12-03 11:50:53 51°14.848 2°47.275 10.3 282 7.2 100930 87
2002-12-03 11:50:58 51°14.844 2°47.249 10.7 280 7.2 100930 87
2002-12-03 11:51:02 51°14.841 2°47.228 10.2 282 7.2 100930 87
2002-12-03 11:51:08 51°14.836 2°47.197 9.3 283 7.2 100930 87
2002-12-03 11:51:13 51°14.832 2°47.171 9.7 278 7.2 100930 87
2002-12-03 11:51:18 51°14.829 2°47.145 10.4 278 7.2 100930 87
2002-12-03 11:51:22 51°14.826 2°47.123 9.7 278 7.2 100930 87
2002-12-03 11:51:28 51°14.822 2°47.092 10.4 275 7.2 100930 87
2002-12-03 11:51:32 51°14.818 2°47.071 10 275 7.2 100930 87
2002-12-03 11:51:38 51°14.814 2°47.04 10.4 274 7.2 100930 87
2002-12-03 11:51:43 51°14.811 2°47.013 9.9 277 7.2 100930 87
2002-12-03 11:51:48 51°14.807 2°46.987 10.4 278 7.2 100940 87
2002-12-03 11:51:53 51°14.804 2°46.961 10 278 7.2 100940 87
2002-12-03 11:51:58 51°14.8 2°46.934 9.5 278 7.2 100930 87
2002-12-03 11:52:02 51°14.797 2°46.913 10 278 7.2 100930 87
2002-12-03 11:52:08 51°14.792 2°46.881 9.1 281 7.2 100930 87
2002-12-03 11:52:13 51°14.789 2°46.854 9.9 280 7.2 100930 87
2002-12-03 11:52:18 51°14.785 2°46.827 9.4 281 7.2 100940 87
2002-12-03 11:52:23 51°14.782 2°46.8 11.1 278 7.2 100940 87
2002-12-03 11:52:28 51°14.778 2°46.773 9.7 278 7.2 100940 87
2002-12-03 11:52:33 51°14.774 2°46.746 10.2 274 7.2 100940 87
2002-12-03 11:52:38 51°14.77 2°46.719 9.8 276 7.1 100940 87
2002-12-03 11:52:42 51°14.767 2°46.697 10 272 7.1 100940 87
2002-12-03 11:52:48 51°14.763 2°46.665 10.2 276 7.2 100930 87
2002-12-03 11:52:53 51°14.758 2°46.637 9.9 277 7.2 100930 87
2002-12-03 11:52:58 51°14.754 2°46.61 10.1 272 7.2 100930 88
2002-12-03 11:53:02 51°14.751 2°46.589 9.4 271 7.2 100930 88
2002-12-03 11:53:08 51°14.747 2°46.556 10.3 268 7.2 100930 88
2002-12-03 11:53:13 51°14.743 2°46.528 10.3 270 7.2 100930 88
2002-12-03 11:53:18 51°14.739 2°46.501 10.2 270 7.2 100940 88
2002-12-03 11:53:22 51°14.736 2°46.479 9.8 270 7.2 100940 88
2002-12-03 11:53:28 51°14.732 2°46.446 9.8 272 7.2 100940 88
2002-12-03 11:53:33 51°14.727 2°46.419 9.4 273 7.2 100940 88
2002-12-03 11:53:38 51°14.724 2°46.392 9.5 273 7.1 100940 88
2002-12-03 11:53:42 51°14.721 2°46.37 10.6 271 7.1 100940 88
2002-12-03 11:53:48 51°14.717 2°46.337 10.6 272 7.1 100940 88
2002-12-03 11:53:53 51°14.713 2°46.31 10 272 7.1 100940 88
2002-12-03 11:53:58 51°14.709 2°46.282 10.7 270 7.2 100940 88
2002-12-03 11:54:02 51°14.706 2°46.26 10.8 270 7.2 100940 88
2002-12-03 11:54:08 51°14.701 2°46.227 10.3 272 7.1 100940 88
2002-12-03 11:54:13 51°14.698 2°46.2 9.7 272 7.1 100940 88
2002-12-03 11:54:18 51°14.694 2°46.173 10.2 274 7.2 100940 88
2002-12-03 11:54:22 51°14.691 2°46.151 9.5 275 7.2 100940 88
2002-12-03 11:54:28 51°14.686 2°46.118 10.2 272 7.2 100940 88
2002-12-03 11:54:33 51°14.682 2°46.091 10.2 268 7.2 100940 88
2002-12-03 11:54:38 51°14.678 2°46.063 9.7 275 7.1 100940 88
2002-12-03 11:54:42 51°14.676 2°46.041 10.3 272 7.1 100940 88
2002-12-03 11:54:48 51°14.671 2°46.008 10.8 274 7.1 100940 88
2002-12-03 11:54:53 51°14.667 2°45.981 9.9 275 7.1 100940 88
2002-12-03 11:54:58 51°14.663 2°45.953 9.5 273 7.1 100950 88
2002-12-03 11:55:02 51°14.661 2°45.931 9.6 275 7.1 100950 88
2002-12-03 11:55:08 51°14.655 2°45.898 9.2 273 7.1 100940 88
2002-12-03 11:55:13 51°14.652 2°45.87 9.4 272 7.1 100940 88
2002-12-03 11:55:18 51°14.648 2°45.843 9.7 276 7.1 100940 88
2002-12-03 11:55:22 51°14.645 2°45.82 9.3 276 7.1 100940 88
2002-12-03 11:55:28 51°14.64 2°45.787 9.7 268 7.1 100950 88
2002-12-03 11:55:33 51°14.637 2°45.759 10.4 271 7.1 100950 88
2002-12-03 11:55:38 51°14.633 2°45.732 10 271 7.1 100940 88
2002-12-03 11:55:42 51°14.63 2°45.709 9.8 274 7.1 100940 88
2002-12-03 11:55:48 51°14.625 2°45.676 8.9 276 7.1 100940 88
2002-12-03 11:55:53 51°14.622 2°45.649 9.1 276 7.1 100940 88
2002-12-03 11:55:58 51°14.618 2°45.621 8.8 277 7.1 100940 88
2002-12-03 11:56:02 51°14.616 2°45.599 8.7 278 7.1 100940 88
2002-12-03 11:56:08 51°14.612 2°45.565 8.9 273 7.1 100950 88
2002-12-03 11:56:13 51°14.609 2°45.537 9 274 7.1 100950 88
2002-12-03 11:56:18 51°14.606 2°45.508 9.5 275 7.1 100940 88
2002-12-03 11:56:22 51°14.604 2°45.486 9.2 272 7.1 100940 88
2002-12-03 11:56:28 51°14.6 2°45.452 8.8 271 7.1 100940 88
2002-12-03 11:56:33 51°14.597 2°45.424 9.4 273 7.1 100940 88
2002-12-03 11:56:38 51°14.594 2°45.396 8.8 276 7.1 100950 88
2002-12-03 11:56:42 51°14.591 2°45.374 9.5 271 7.1 100950 88
2002-12-03 11:56:48 51°14.588 2°45.34 9.7 270 7.1 100950 88
2002-12-03 11:56:53 51°14.585 2°45.312 10.3 269 7.1 100950 88
2002-12-03 11:56:58 51°14.582 2°45.284 9.8 270 7.1 100940 88
2002-12-03 11:57:02 51°14.58 2°45.262 9.6 274 7.1 100940 88
2002-12-03 11:57:08 51°14.576 2°45.228 9.5 276 7.1 100940 88
2002-12-03 11:57:13 51°14.572 2°45.201 9.4 278 7.1 100940 88
2002-12-03 11:57:18 51°14.569 2°45.173 8.8 272 7.1 100940 88
2002-12-03 11:57:22 51°14.567 2°45.15 9.5 272 7.1 100940 88
2002-12-03 11:57:28 51°14.563 2°45.117 9.6 275 7.1 100940 88
2002-12-03 11:57:33 51°14.559 2°45.09 9.2 276 7.1 100940 88
2002-12-03 11:57:38 51°14.557 2°45.062 9.1 277 7.1 100940 88
2002-12-03 11:57:43 51°14.553 2°45.035 8.9 274 7.1 100940 88
2002-12-03 11:57:48 51°14.55 2°45.007 9.4 274 7.1 100950 88
2002-12-03 11:57:53 51°14.547 2°44.979 9.5 271 7.1 100950 88
2002-12-03 11:57:58 51°14.544 2°44.952 9.1 273 7.1 100940 88
2002-12-03 11:58:02 51°14.542 2°44.93 9.3 274 7.1 100940 88
2002-12-03 11:58:08 51°14.538 2°44.896 9.1 276 7.1 100940 88
2002-12-03 11:58:13 51°14.535 2°44.869 8.7 279 7.1 100940 88
2002-12-03 11:58:18 51°14.532 2°44.841 8.2 277 7.1 100940 88
2002-12-03 11:58:22 51°14.53 2°44.819 8.2 278 7.1 100940 88
2002-12-03 11:58:28 51°14.526 2°44.786 8.3 276 7.1 100950 88
2002-12-03 11:58:33 51°14.523 2°44.759 9.5 276 7.1 100950 88
2002-12-03 11:58:38 51°14.52 2°44.731 10 274 7.1 100950 88
2002-12-03 11:58:42 51°14.518 2°44.709 9.1 272 7.1 100950 88
2002-12-03 11:58:48 51°14.514 2°44.676 9.6 275 7.1 100950 88
2002-12-03 11:58:53 51°14.511 2°44.649 8.8 273 7.1 100950 88
2002-12-03 11:58:58 51°14.508 2°44.621 9.3 277 7.1 100940 88
2002-12-03 11:59:02 51°14.505 2°44.6 9 273 7.1 100940 88
2002-12-03 11:59:08 51°14.502 2°44.567 9.6 274 7.1 100940 88
2002-12-03 11:59:13 51°14.499 2°44.539 8.9 273 7.1 100940 88
2002-12-03 11:59:18 51°14.496 2°44.512 8.7 273 7.1 100950 88
2002-12-03 11:59:22 51°14.493 2°44.49 8.9 281 7.1 100950 88
2002-12-03 11:59:28 51°14.489 2°44.457 9.4 280 7.1 100940 88
2002-12-03 11:59:33 51°14.486 2°44.43 9.3 276 7.1 100940 88
2002-12-03 11:59:38 51°14.484 2°44.403 9.8 274 7.1 100940 88
2002-12-03 11:59:42 51°14.481 2°44.381 9.5 270 7.1 100940 88
2002-12-03 11:59:48 51°14.478 2°44.348 9.3 272 7.2 100940 88
2002-12-03 11:59:53 51°14.474 2°44.321 9 272 7.2 100940 88
2002-12-03 11:59:58 51°14.471 2°44.294 9.5 274 7.2 100940 88
2002-12-03 12:00:02 51°14.469 2°44.272 9.6 272 7.2 100940 88
2002-12-03 12:00:08 51°14.465 2°44.239 8.5 275 7.2 100940 88
2002-12-03 12:00:13 51°14.462 2°44.212 8.5 275 7.2 100940 88
2002-12-03 12:00:18 51°14.459 2°44.184 9.3 269 7.2 100940 88
2002-12-03 12:00:22 51°14.457 2°44.162 10.3 271 7.2 100940 88
2002-12-03 12:00:28 51°14.454 2°44.13 9.8 273 7.2 100940 88
2002-12-03 12:00:33 51°14.451 2°44.102 9.5 278 7.2 100940 88
2002-12-03 12:00:38 51°14.448 2°44.075 9.4 279 7.2 100940 88
2002-12-03 12:00:42 51°14.446 2°44.053 10.1 275 7.2 100950 88
2002-12-03 12:00:48 51°14.444 2°44.019 10.2 274 7.2 100950 88
2002-12-03 12:00:53 51°14.442 2°43.992 9.9 279 7.2 100940 88
2002-12-03 12:00:58 51°14.44 2°43.964 9.5 278 7.2 100940 88
2002-12-03 12:01:02 51°14.439 2°43.942 9.2 279 7.2 100940 88
2002-12-03 12:01:08 51°14.436 2°43.909 8.7 276 7.2 100940 88
2002-12-03 12:01:13 51°14.433 2°43.881 8.4 276 7.2 100940 88
2002-12-03 12:01:18 51°14.431 2°43.854 9.1 278 7.2 100940 88
2002-12-03 12:01:22 51°14.43 2°43.832 9 277 7.2 100940 88
2002-12-03 12:01:28 51°14.427 2°43.799 9.7 281 7.2 100940 88
2002-12-03 12:01:33 51°14.425 2°43.771 9.4 280 7.2 100940 88
2002-12-03 12:01:38 51°14.423 2°43.743 9 279 7.2 100950 88
2002-12-03 12:01:42 51°14.421 2°43.722 9.2 280 7.2 100950 88
2002-12-03 12:01:48 51°14.418 2°43.688 9.2 282 7.2 100940 88
2002-12-03 12:01:53 51°14.415 2°43.661 8.8 280 7.2 100940 88
2002-12-03 12:01:58 51°14.413 2°43.633 8.9 281 7.2 100940 88
2002-12-03 12:02:03 51°14.411 2°43.606 8.8 279 7.2 100940 88
2002-12-03 12:02:08 51°14.409 2°43.578 8.9 278 7.2 100940 88
2002-12-03 12:02:13 51°14.406 2°43.551 9.2 277 7.2 100940 88
2002-12-03 12:02:18 51°14.404 2°43.523 8.8 276 7.2 100940 88
2002-12-03 12:02:22 51°14.402 2°43.501 8.9 271 7.2 100940 88
2002-12-03 12:02:28 51°14.4 2°43.468 9.2 273 7.2 100950 88
2002-12-03 12:02:33 51°14.399 2°43.44 8 277 7.2 100950 88
2002-12-03 12:02:38 51°14.397 2°43.412 8.3 277 7.2 100940 88
2002-12-03 12:02:43 51°14.396 2°43.385 8.4 272 7.2 100940 88
2002-12-03 12:02:48 51°14.394 2°43.357 8.6 276 7.2 100940 88
2002-12-03 12:02:53 51°14.392 2°43.329 8.8 275 7.2 100940 88
2002-12-03 12:02:58 51°14.391 2°43.301 8.2 273 7.2 100940 88
2002-12-03 12:03:02 51°14.389 2°43.279 8.6 278 7.2 100940 88
2002-12-03 12:03:08 51°14.387 2°43.245 10.3 277 7.2 100940 88
2002-12-03 12:03:13 51°14.386 2°43.218 9.8 280 7.2 100950 88
2002-12-03 12:03:18 51°14.385 2°43.19 10.6 275 7.3 100940 88
2002-12-03 12:03:22 51°14.383 2°43.168 10.4 274 7.3 100940 88
2002-12-03 12:03:28 51°14.382 2°43.134 10.4 277 7.3 100940 88
2002-12-03 12:03:33 51°14.38 2°43.107 10.3 278 7.3 100950 89
2002-12-03 12:03:38 51°14.378 2°43.079 10.1 279 7.3 100940 88
2002-12-03 12:03:43 51°14.377 2°43.051 10 284 7.3 100940 88
2002-12-03 12:03:48 51°14.375 2°43.023 9.6 280 7.3 100940 88
2002-12-03 12:03:53 51°14.374 2°42.996 9.6 282 7.3 100940 88
2002-12-03 12:03:58 51°14.372 2°42.968 9.3 283 7.3 100930 88
2002-12-03 12:04:03 51°14.37 2°42.94 9.3 282 7.3 100930 88
2002-12-03 12:04:08 51°14.369 2°42.912 9.4 282 7.3 100930 88
2002-12-03 12:04:13 51°14.367 2°42.885 10.4 277 7.3 100940 88
2002-12-03 12:04:18 51°14.366 2°42.857 10 277 7.3 100940 88
2002-12-03 12:04:22 51°14.364 2°42.835 9.7 280 7.3 100940 88
2002-12-03 12:04:28 51°14.362 2°42.801 9.9 282 7.3 100940 88
2002-12-03 12:04:33 51°14.361 2°42.774 9.9 282 7.3 100940 88
2002-12-03 12:04:38 51°14.359 2°42.746 9.4 279 7.3 100940 88
2002-12-03 12:04:42 51°14.358 2°42.723 9.7 279 7.3 100940 88
2002-12-03 12:04:48 51°14.357 2°42.69 9.8 273 7.3 100940 88
2002-12-03 12:04:52 51°14.355 2°42.668 10.1 277 7.3 100940 88
2002-12-03 12:04:58 51°14.354 2°42.634 9.9 279 7.3 100940 88
2002-12-03 12:05:02 51°14.353 2°42.612 9.6 281 7.3 100940 88
2002-12-03 12:05:08 51°14.351 2°42.579 10.5 274 7.3 100940 88
2002-12-03 12:05:13 51°14.349 2°42.551 10 278 7.3 100940 88
2002-12-03 12:05:18 51°14.347 2°42.523 9.9 280 7.3 100940 88
2002-12-03 12:05:22 51°14.346 2°42.501 9.3 280 7.3 100940 88
2002-12-03 12:05:28 51°14.344 2°42.468 9 280 7.3 100940 88
2002-12-03 12:05:33 51°14.343 2°42.44 9 284 7.3 100940 88
2002-12-03 12:05:38 51°14.341 2°42.412 8.5 280 7.3 100940 88
2002-12-03 12:05:42 51°14.339 2°42.39 9.1 275 7.3 100940 88
2002-12-03 12:05:48 51°14.337 2°42.357 9 276 7.3 100940 88
2002-12-03 12:05:53 51°14.336 2°42.329 9 283 7.3 100940 88
2002-12-03 12:05:58 51°14.334 2°42.302 9.4 279 7.3 100940 88
2002-12-03 12:06:02 51°14.333 2°42.279 9.1 278 7.3 100940 88
2002-12-03 12:06:08 51°14.331 2°42.246 9.7 270 7.3 100940 88
2002-12-03 12:06:13 51°14.329 2°42.218 9.9 277 7.3 100940 88
2002-12-03 12:06:18 51°14.328 2°42.19 9.7 279 7.3 100950 88
2002-12-03 12:06:23 51°14.326 2°42.162 9.3 279 7.3 100950 88
2002-12-03 12:06:28 51°14.325 2°42.135 9.2 276 7.3 100950 88
2002-12-03 12:06:33 51°14.323 2°42.107 9.5 276 7.3 100950 88
2002-12-03 12:06:38 51°14.322 2°42.079 10 278 7.3 100940 88
2002-12-03 12:06:42 51°14.321 2°42.057 9.5 277 7.3 100940 88
2002-12-03 12:06:48 51°14.319 2°42.024 9.1 276 7.3 100940 88
2002-12-03 12:06:53 51°14.317 2°41.996 9.6 279 7.3 100940 88
2002-12-03 12:06:58 51°14.315 2°41.968 9.8 277 7.3 100940 88
2002-12-03 12:07:03 51°14.314 2°41.94 10.2 273 7.3 100940 88
2002-12-03 12:07:08 51°14.313 2°41.912 9.1 273 7.3 100940 88
2002-12-03 12:07:13 51°14.311 2°41.884 9.4 279 7.3 100940 88
2002-12-03 12:07:18 51°14.31 2°41.856 9.8 279 7.3 100950 88
2002-12-03 12:07:23 51°14.308 2°41.829 8.8 281 7.3 100950 88
2002-12-03 12:07:28 51°14.306 2°41.801 9.3 280 7.3 100940 88
2002-12-03 12:07:33 51°14.304 2°41.773 10.1 278 7.3 100940 88
2002-12-03 12:07:38 51°14.302 2°41.745 10.4 276 7.3 100940 88
2002-12-03 12:07:42 51°14.301 2°41.723 10.5 276 7.3 100940 88
2002-12-03 12:07:48 51°14.299 2°41.69 9.7 280 7.3 100950 88
2002-12-03 12:07:52 51°14.297 2°41.668 10 280 7.3 100950 88
2002-12-03 12:07:58 51°14.295 2°41.634 9.4 279 7.3 100950 88
2002-12-03 12:08:03 51°14.294 2°41.607 9.5 280 7.3 100950 88
2002-12-03 12:08:08 51°14.292 2°41.579 9.4 275 7.3 100950 88
2002-12-03 12:08:13 51°14.29 2°41.551 9.5 278 7.3 100940 88
2002-12-03 12:08:18 51°14.289 2°41.523 9.3 281 7.3 100940 88
2002-12-03 12:08:22 51°14.287 2°41.5 9.5 279 7.3 100940 88
2002-12-03 12:08:28 51°14.285 2°41.467 8.8 282 7.3 100940 88
2002-12-03 12:08:33 51°14.283 2°41.439 8.7 280 7.3 100940 88
2002-12-03 12:08:38 51°14.281 2°41.411 8.9 282 7.3 100940 88
2002-12-03 12:08:42 51°14.28 2°41.388 9.1 280 7.3 100940 88
2002-12-03 12:08:48 51°14.277 2°41.355 8.4 285 7.3 100940 88
2002-12-03 12:08:53 51°14.275 2°41.327 8.8 284 7.3 100940 88
2002-12-03 12:08:58 51°14.273 2°41.299 8.2 278 7.3 100950 88
2002-12-03 12:09:02 51°14.273 2°41.276 9.2 280 7.3 100950 88
2002-12-03 12:09:08 51°14.272 2°41.243 9 281 7.3 100950 88
2002-12-03 12:09:13 51°14.272 2°41.214 8.3 283 7.3 100940 88
2002-12-03 12:09:18 51°14.273 2°41.186 7.9 285 7.3 100940 88
2002-12-03 12:09:22 51°14.274 2°41.163 8 279 7.4 100950 88
2002-12-03 12:09:28 51°14.275 2°41.129 7.6 280 7.4 100940 88
2002-12-03 12:09:33 51°14.277 2°41.101 8.1 280 7.4 100940 88
2002-12-03 12:09:38 51°14.279 2°41.073 7.2 275 7.4 100950 88
2002-12-03 12:09:42 51°14.28 2°41.05 8.5 279 7.4 100950 88
2002-12-03 12:09:48 51°14.282 2°41.016 7.9 279 7.4 100950 88
2002-12-03 12:09:53 51°14.284 2°40.987 8.4 277 7.4 100950 88
2002-12-03 12:09:58 51°14.285 2°40.959 7.9 279 7.4 100950 88
2002-12-03 12:10:02 51°14.287 2°40.936 8.2 280 7.4 100950 87
2002-12-03 12:10:08 51°14.289 2°40.902 8.5 286 7.4 100950 87
2002-12-03 12:10:13 51°14.29 2°40.874 8.3 282 7.4 100950 87
2002-12-03 12:10:18 51°14.292 2°40.846 8.4 287 7.4 100950 87
2002-12-03 12:10:23 51°14.294 2°40.817 6.8 291 7.4 100950 87
2002-12-03 12:10:28 51°14.296 2°40.789 8.8 283 7.4 100950 87
2002-12-03 12:10:33 51°14.298 2°40.76 8.9 282 7.4 100950 87
2002-12-03 12:10:38 51°14.301 2°40.732 8.4 286 7.4 100950 87
2002-12-03 12:10:43 51°14.305 2°40.704 7.9 288 7.4 100950 87
2002-12-03 12:10:48 51°14.308 2°40.676 7.7 286 7.4 100950 87
2002-12-03 12:10:53 51°14.311 2°40.647 7.1 287 7.4 100940 88
2002-12-03 12:10:58 51°14.315 2°40.619 6.3 282 7.4 100940 88
2002-12-03 12:11:02 51°14.318 2°40.597 7.5 283 7.4 100940 88
2002-12-03 12:11:08 51°14.324 2°40.563 7.2 293 7.4 100940 88
2002-12-03 12:11:13 51°14.328 2°40.536 6.8 289 7.4 100950 87
2002-12-03 12:11:18 51°14.333 2°40.508 7.5 291 7.5 100950 87
2002-12-03 12:11:22 51°14.337 2°40.485 6.4 286 7.5 100950 87
2002-12-03 12:11:28 51°14.342 2°40.452 6.7 285 7.5 100950 87
2002-12-03 12:11:33 51°14.348 2°40.424 6.1 294 7.5 100950 87
2002-12-03 12:11:38 51°14.354 2°40.396 7 296 7.5 100950 87
2002-12-03 12:11:42 51°14.358 2°40.374 6.4 287 7.5 100950 87
2002-12-03 12:11:48 51°14.365 2°40.341 6.2 290 7.5 100950 87
2002-12-03 12:11:53 51°14.371 2°40.314 6.1 286 7.5 100950 87
2002-12-03 12:11:58 51°14.377 2°40.286 6 291 7.5 100950 87
2002-12-03 12:12:02 51°14.382 2°40.264 6.2 285 7.5 100950 87
2002-12-03 12:12:08 51°14.391 2°40.232 6 289 7.5 100950 87
2002-12-03 12:12:13 51°14.399 2°40.206 6.2 282 7.5 100950 87
2002-12-03 12:12:18 51°14.407 2°40.179 7.1 291 7.5 100950 87
2002-12-03 12:12:22 51°14.414 2°40.158 6.9 291 7.5 100950 87
2002-12-03 12:12:28 51°14.423 2°40.127 6.8 298 7.5 100950 87
2002-12-03 12:12:33 51°14.432 2°40.101 6.6 298 7.5 100950 87
2002-12-03 12:12:38 51°14.441 2°40.075 6.5 301 7.6 100950 87
2002-12-03 12:12:42 51°14.447 2°40.054 5.1 293 7.6 100950 87
2002-12-03 12:12:48 51°14.458 2°40.022 5.8 300 7.6 100950 87
2002-12-03 12:12:53 51°14.466 2°39.996 6.1 292 7.6 100950 87
2002-12-03 12:12:58 51°14.475 2°39.969 4.9 303 7.6 100950 87
2002-12-03 12:13:02 51°14.481 2°39.949 5.4 302 7.6 100950 87
2002-12-03 12:13:08 51°14.493 2°39.918 5.4 303 7.6 100950 87
2002-12-03 12:13:13 51°14.503 2°39.893 5.5 298 7.6 100950 87
2002-12-03 12:13:18 51°14.513 2°39.867 4.9 295 7.6 100950 87
2002-12-03 12:13:22 51°14.521 2°39.847 4.4 303 7.6 100950 87
2002-12-03 12:13:28 51°14.533 2°39.817 5.2 295 7.6 100950 87
2002-12-03 12:13:33 51°14.543 2°39.793 4.4 302 7.6 100950 87
2002-12-03 12:13:38 51°14.554 2°39.768 4.3 310 7.6 100960 87
2002-12-03 12:13:43 51°14.565 2°39.744 4.3 313 7.6 100960 87
2002-12-03 12:13:48 51°14.576 2°39.719 4.1 306 7.6 100960 87
2002-12-03 12:13:53 51°14.587 2°39.695 4.5 304 7.6 100950 87
2002-12-03 12:13:58 51°14.598 2°39.671 5 296 7.6 100960 87
2002-12-03 12:14:02 51°14.607 2°39.652 4.3 294 7.6 100960 87
2002-12-03 12:14:08 51°14.621 2°39.623 4.8 291 7.6 100960 87
2002-12-03 12:14:13 51°14.632 2°39.599 4 304 7.6 100960 87
2002-12-03 12:14:18 51°14.643 2°39.574 4 297 7.6 100960 87
2002-12-03 12:14:23 51°14.654 2°39.55 4.1 290 7.6 100960 87
2002-12-03 12:14:28 51°14.665 2°39.526 4.4 289 7.6 100960 87
2002-12-03 12:14:33 51°14.676 2°39.502 4.2 299 7.7 100960 87
2002-12-03 12:14:38 51°14.687 2°39.478 4.5 296 7.7 100960 87
2002-12-03 12:14:42 51°14.696 2°39.459 4.5 299 7.7 100960 87
2002-12-03 12:14:48 51°14.709 2°39.43 3.9 289 7.7 100950 88
2002-12-03 12:14:53 51°14.72 2°39.406 3.9 293 7.7 100950 88
2002-12-03 12:14:58 51°14.732 2°39.382 5.1 293 7.7 100960 88
2002-12-03 12:15:02 51°14.741 2°39.363 4.8 293 7.7 100960 88
2002-12-03 12:15:08 51°14.754 2°39.335 5 294 7.7 100950 88
2002-12-03 12:15:13 51°14.766 2°39.311 4.4 291 7.7 100950 88
2002-12-03 12:15:18 51°14.777 2°39.288 4.1 291 7.8 100950 88
2002-12-03 12:15:22 51°14.786 2°39.269 4.5 292 7.8 100950 88
2002-12-03 12:15:28 51°14.799 2°39.24 4.4 290 7.8 100950 88
2002-12-03 12:15:33 51°14.811 2°39.216 4.6 295 7.8 100960 87
2002-12-03 12:15:38 51°14.823 2°39.192 4.7 300 7.8 100960 87
2002-12-03 12:15:42 51°14.832 2°39.173 4.4 297 7.8 100960 87
2002-12-03 12:15:48 51°14.846 2°39.145 4.7 299 7.8 100960 87
2002-12-03 12:15:53 51°14.857 2°39.121 4.2 288 7.8 100950 87
2002-12-03 12:15:58 51°14.868 2°39.097 4.2 294 7.8 100960 87
2002-12-03 12:16:02 51°14.878 2°39.078 4.3 286 7.8 100960 87
2002-12-03 12:16:08 51°14.891 2°39.049 5.3 292 7.8 100960 87
2002-12-03 12:16:13 51°14.902 2°39.025 4.3 293 7.8 100960 87
2002-12-03 12:16:18 51°14.914 2°39.002 4.5 300 7.8 100960 87
2002-12-03 12:16:23 51°14.926 2°38.978 4.1 295 7.8 100960 87
2002-12-03 12:16:28 51°14.938 2°38.955 4.8 298 7.8 100960 87
2002-12-03 12:16:33 51°14.949 2°38.932 4.3 302 7.8 100960 87
2002-12-03 12:16:38 51°14.961 2°38.908 4.3 298 7.9 100960 87
2002-12-03 12:16:42 51°14.971 2°38.89 4.7 298 7.9 100960 87
2002-12-03 12:16:48 51°14.986 2°38.862 4.6 299 7.9 100960 87
2002-12-03 12:16:53 51°14.998 2°38.838 4.1 287 7.9 100960 87
2002-12-03 12:16:58 51°15.009 2°38.815 4.4 294 7.9 100960 87
2002-12-03 12:17:03 51°15.021 2°38.791 4.6 302 7.9 100960 87
2002-12-03 12:17:08 51°15.033 2°38.767 4.1 297 7.9 100950 87
2002-12-03 12:17:13 51°15.044 2°38.743 3.1 304 7.9 100950 87
2002-12-03 12:17:18 51°15.056 2°38.72 3.8 301 7.9 100950 87
2002-12-03 12:17:23 51°15.067 2°38.696 3.2 293 7.9 100960 87
2002-12-03 12:17:28 51°15.079 2°38.672 3.7 288 7.9 100960 87
2002-12-03 12:17:33 51°15.09 2°38.649 3.6 290 7.9 100960 87
2002-12-03 12:17:38 51°15.103 2°38.626 4.8 296 7.9 100960 87
2002-12-03 12:17:42 51°15.113 2°38.608 3.9 294 7.9 100960 87
2002-12-03 12:17:48 51°15.129 2°38.581 3.7 293 7.9 100960 87
2002-12-03 12:17:53 51°15.142 2°38.559 3.7 295 7.9 100960 87
2002-12-03 12:17:58 51°15.155 2°38.536 3.1 292 7.9 100960 87
2002-12-03 12:18:02 51°15.165 2°38.519 3.2 295 7.9 100960 87
2002-12-03 12:18:08 51°15.18 2°38.491 3.4 289 7.9 100960 87
2002-12-03 12:18:13 51°15.193 2°38.468 3.1 307 8 100960 87
2002-12-03 12:18:18 51°15.205 2°38.445 3.5 294 8 100960 87
2002-12-03 12:18:23 51°15.217 2°38.423 3.9 287 8 100960 87
2002-12-03 12:18:28 51°15.229 2°38.4 5.2 294 8 100960 87
2002-12-03 12:18:33 51°15.243 2°38.378 5.5 300 8 100960 87
2002-12-03 12:18:38 51°15.255 2°38.355 4.8 294 8 100960 87
2002-12-03 12:18:42 51°15.265 2°38.337 5.2 296 8 100970 87
2002-12-03 12:18:48 51°15.28 2°38.31 4.9 289 8 100960 87
2002-12-03 12:18:53 51°15.292 2°38.287 4.7 294 8 100960 87
2002-12-03 12:18:58 51°15.304 2°38.265 4.7 296 8 100960 87
2002-12-03 12:19:02 51°15.314 2°38.247 4.8 297 8 100960 87
2002-12-03 12:19:08 51°15.328 2°38.22 4.2 301 8.1 100960 87
2002-12-03 12:19:13 51°15.341 2°38.197 3.9 299 8.1 100960 87
2002-12-03 12:19:18 51°15.353 2°38.174 4.4 290 8.1 100960 87
2002-12-03 12:19:22 51°15.362 2°38.157 4.7 286 8.1 100950 87
2002-12-03 12:19:28 51°15.377 2°38.13 4.4 287 8.1 100950 87
2002-12-03 12:19:33 51°15.389 2°38.109 4.7 299 8.1 100960 87
2002-12-03 12:19:38 51°15.402 2°38.087 4.5 292 8.1 100960 87
2002-12-03 12:19:42 51°15.412 2°38.069 4.9 284 8.1 100970 87
2002-12-03 12:19:48 51°15.427 2°38.043 5.1 293 8.1 100970 87
2002-12-03 12:19:53 51°15.44 2°38.022 4.9 292 8.1 100960 87
2002-12-03 12:19:58 51°15.452 2°38 5 303 8.1 100960 87
2002-12-03 12:20:03 51°15.464 2°37.978 5.1 295 8.1 100960 87
2002-12-03 12:20:08 51°15.477 2°37.956 4.4 297 8.1 100960 87
2002-12-03 12:20:13 51°15.489 2°37.935 4.1 299 8.1 100960 87
2002-12-03 12:20:18 51°15.501 2°37.913 3.8 297 8.1 100960 87
2002-12-03 12:20:22 51°15.511 2°37.896 4.3 284 8.1 100960 87
2002-12-03 12:20:28 51°15.526 2°37.87 3.6 302 8.1 100960 87
2002-12-03 12:20:33 51°15.539 2°37.848 3.7 296 8.1 100970 87
2002-12-03 12:20:38 51°15.551 2°37.827 3.5 296 8.1 100970 86
2002-12-03 12:20:42 51°15.561 2°37.81 4.2 300 8.1 100970 86
2002-12-03 12:20:48 51°15.577 2°37.784 4.1 289 8.1 100970 86
2002-12-03 12:20:53 51°15.59 2°37.763 5 287 8.1 100960 86
2002-12-03 12:20:58 51°15.602 2°37.741 5.1 290 8.1 100960 86
2002-12-03 12:21:03 51°15.615 2°37.719 5.2 295 8.1 100960 86
2002-12-03 12:21:08 51°15.627 2°37.697 5 294 8.1 100970 86
2002-12-03 12:21:13 51°15.64 2°37.676 4.7 299 8.1 100970 86
2002-12-03 12:21:18 51°15.652 2°37.654 4.1 295 8.1 100960 86
2002-12-03 12:21:23 51°15.665 2°37.632 4.2 293 8.1 100960 86
2002-12-03 12:21:28 51°15.678 2°37.61 4.5 292 8.1 100960 86
2002-12-03 12:21:33 51°15.69 2°37.589 4.2 289 8.1 100960 86
2002-12-03 12:21:38 51°15.703 2°37.567 5 287 8.1 100960 86
2002-12-03 12:21:42 51°15.713 2°37.55 4.9 292 8.1 100960 86
2002-12-03 12:21:48 51°15.728 2°37.524 4.6 295 8.1 100960 86
2002-12-03 12:21:53 51°15.741 2°37.503 4.5 291 8.1 100960 86
2002-12-03 12:21:58 51°15.754 2°37.481 4.6 289 8.1 100960 86
2002-12-03 12:22:03 51°15.767 2°37.458 4.4 289 8.1 100960 86
2002-12-03 12:22:08 51°15.78 2°37.436 4.2 294 8.1 100960 86
2002-12-03 12:22:13 51°15.792 2°37.414 4.2 293 8.1 100960 86
2002-12-03 12:22:18 51°15.805 2°37.393 4.6 296 8.2 100960 86
2002-12-03 12:22:23 51°15.818 2°37.371 4.4 293 8.2 100960 86
2002-12-03 12:22:28 51°15.831 2°37.349 4.7 299 8.2 100960 86
2002-12-03 12:22:33 51°15.843 2°37.327 4.3 297 8.1 100960 86
2002-12-03 12:22:38 51°15.856 2°37.304 4.4 292 8.1 100960 86
2002-12-03 12:22:42 51°15.867 2°37.287 5.9 282 8.1 100960 86
2002-12-03 12:22:48 51°15.882 2°37.26 5.1 285 8.1 100970 86
2002-12-03 12:22:53 51°15.895 2°37.238 6 285 8.1 100970 86
2002-12-03 12:22:58 51°15.908 2°37.215 5.2 287 8.1 100960 86
2002-12-03 12:23:03 51°15.921 2°37.193 5.6 286 8.1 100960 86
2002-12-03 12:23:08 51°15.934 2°37.171 5.3 286 8.2 100960 86
2002-12-03 12:23:13 51°15.947 2°37.149 4.6 289 8.2 100960 86
2002-12-03 12:23:18 51°15.96 2°37.126 4.6 290 8.2 100960 86
2002-12-03 12:23:23 51°15.974 2°37.104 5.1 285 8.2 100960 86
2002-12-03 12:23:28 51°15.987 2°37.082 5.1 295 8.2 100960 86
2002-12-03 12:23:33 51°16.001 2°37.06 4.5 297 8.2 100960 86
2002-12-03 12:23:38 51°16.014 2°37.038 2.6 293 8.2 100960 86
2002-12-03 12:23:42 51°16.025 2°37.02 3.4 296 8.2 100960 86
2002-12-03 12:23:48 51°16.041 2°36.994 2.7 307 8.2 100960 86
2002-12-03 12:23:53 51°16.055 2°36.973 3.4 285 8.2 100960 86
2002-12-03 12:23:58 51°16.069 2°36.951 4 297 8.2 100960 85
2002-12-03 12:24:02 51°16.079 2°36.935 3.4 296 8.2 100960 85
2002-12-03 12:24:08 51°16.094 2°36.912 2.5 316 8.2 100960 85
2002-12-03 12:24:13 51°16.106 2°36.895 2.9 298 8.2 100960 85
2002-12-03 12:24:18 51°16.116 2°36.878 2.9 297 8.2 100970 85
2002-12-03 12:24:23 51°16.126 2°36.863 1 327 8.2 100970 85
2002-12-03 12:24:27 51°16.135 2°36.851 1.2 331 8.2 100970 85
2002-12-03 12:24:33 51°16.146 2°36.835 0.9 339 8.2 100970 85
2002-12-03 12:24:38 51°16.156 2°36.822 0.5 342 8.2 100960 85
2002-12-03 12:24:42 51°16.163 2°36.813 0.6 325 8.2 100960 85
2002-12-03 12:24:48 51°16.173 2°36.799 0.6 317 8.2 100960 86
2002-12-03 12:24:53 51°16.181 2°36.788 1.6 322 8.2 100960 86
2002-12-03 12:24:58 51°16.188 2°36.778 1.4 329 8.2 100960 86
2002-12-03 12:25:02 51°16.194 2°36.771 1.1 343 8.2 100960 86
2002-12-03 12:25:08 51°16.202 2°36.76 3.1 348 8.2 100960 86
2002-12-03 12:25:13 51°16.209 2°36.751 2.1 346 8.2 100960 86
2002-12-03 12:25:18 51°16.215 2°36.743 3.2 347 8.2 100960 85
2002-12-03 12:25:22 51°16.219 2°36.736 2.4 339 8.2 100960 85
2002-12-03 12:25:28 51°16.225 2°36.727 1.6 331 8.1 100960 85
2002-12-03 12:25:33 51°16.23 2°36.72 1.2 338 8.1 100960 85
2002-12-03 12:25:38 51°16.234 2°36.713 0.9 331 8.1 100960 85
2002-12-03 12:25:42 51°16.237 2°36.708 1.3 319 8.1 100960 85
2002-12-03 12:25:48 51°16.242 2°36.701 1 321 8.1 100960 85
2002-12-03 12:25:53 51°16.245 2°36.695 1.1 327 8.1 100960 85
2002-12-03 12:25:58 51°16.248 2°36.69 0.9 330 8.1 100960 85
2002-12-03 12:26:02 51°16.25 2°36.686 1.2 324 8.1 100960 85
2002-12-03 12:26:08 51°16.253 2°36.681 1 328 8.1 100960 85
2002-12-03 12:26:13 51°16.255 2°36.676 2.2 341 8.1 100950 85
2002-12-03 12:26:18 51°16.257 2°36.672 1.9 327 8 100950 85
2002-12-03 12:26:22 51°16.258 2°36.669 2.3 324 8 100950 85
2002-12-03 12:26:28 51°16.26 2°36.665 4 301 8 100950 85
2002-12-03 12:26:33 51°16.261 2°36.662 4.6 315 8 100960 85
2002-12-03 12:26:38 51°16.263 2°36.659 3.6 314 8 100950 85
2002-12-03 12:26:43 51°16.264 2°36.657 5.1 310 8 100950 85
2002-12-03 12:26:48 51°16.266 2°36.654 4.2 312 8 100950 86
2002-12-03 12:26:53 51°16.267 2°36.652 6.2 297 8 100950 86
2002-12-03 12:26:58 51°16.268 2°36.651 5.1 300 8 100950 86
2002-12-03 12:27:03 51°16.269 2°36.649 4.3 292 8 100950 86
2002-12-03 12:27:08 51°16.27 2°36.648 5.2 300 8 100950 86
2002-12-03 12:27:13 51°16.271 2°36.646 6.4 295 8 100950 86
2002-12-03 12:27:18 51°16.271 2°36.645 6.5 300 8 100950 86
2002-12-03 12:27:22 51°16.272 2°36.645 7.9 295 8 100950 86
2002-12-03 12:27:28 51°16.272 2°36.644 7.6 296 8 100950 86
2002-12-03 12:27:33 51°16.272 2°36.643 7.9 296 8 100950 86
2002-12-03 12:27:38 51°16.273 2°36.643 7.8 296 8 100950 86
2002-12-03 12:27:42 51°16.273 2°36.643 7.1 294 8 100950 86
2002-12-03 12:27:48 51°16.274 2°36.643 7.2 296 8 100950 86
2002-12-03 12:27:53 51°16.275 2°36.643 7.4 295 8 100950 86
2002-12-03 12:27:58 51°16.275 2°36.643 7.4 288 8 100950 86
2002-12-03 12:28:02 51°16.275 2°36.644 7.1 287 8 100950 86
2002-12-03 12:28:08 51°16.275 2°36.644 7.5 285 8 100950 86
2002-12-03 12:28:13 51°16.276 2°36.645 7 274 8 100950 86
2002-12-03 12:28:18 51°16.276 2°36.646 6.3 275 8 100950 86
2002-12-03 12:28:22 51°16.277 2°36.647 7 276 8 100950 86
2002-12-03 12:28:28 51°16.277 2°36.648 7 284 8 100950 86
2002-12-03 12:28:33 51°16.278 2°36.649 6.6 279 8 100950 86
2002-12-03 12:28:38 51°16.278 2°36.651 6.4 279 8 100940 86
2002-12-03 12:28:43 51°16.278 2°36.652 6.7 269 8 100940 86
2002-12-03 12:28:47 51°16.278 2°36.653 7 271 8 100950 86
2002-12-03 12:28:53 51°16.279 2°36.655 7.3 275 8 100950 86
2002-12-03 12:28:58 51°16.279 2°36.656 7.4 273 8 100950 86
2002-12-03 12:29:02 51°16.28 2°36.658 6.7 272 8 100950 86
2002-12-03 12:29:08 51°16.28 2°36.66 6.9 266 8 100950 86
2002-12-03 12:29:13 51°16.281 2°36.662 7.3 259 8 100950 86
2002-12-03 12:29:18 51°16.281 2°36.664 7.6 264 8 100950 86
2002-12-03 12:29:23 51°16.281 2°36.666 6.4 264 8 100950 86
2002-12-03 12:29:28 51°16.282 2°36.668 6.3 264 8 100950 86
2002-12-03 12:29:33 51°16.282 2°36.67 7.8 262 8 100950 86
2002-12-03 12:29:38 51°16.283 2°36.672 7.2 259 8 100950 86
2002-12-03 12:29:42 51°16.283 2°36.674 7.2 261 8 100950 86
2002-12-03 12:29:48 51°16.283 2°36.676 7.1 261 8.1 100950 86
2002-12-03 12:29:53 51°16.284 2°36.678 7.3 259 8.1 100950 86
2002-12-03 12:29:58 51°16.284 2°36.68 6.8 261 8.1 100950 86
2002-12-03 12:30:02 51°16.284 2°36.682 6.6 265 8.1 100950 86
2002-12-03 12:30:08 51°16.284 2°36.684 7 265 8.1 100950 86
2002-12-03 12:30:13 51°16.285 2°36.686 6.2 272 8 100950 86
2002-12-03 12:30:18 51°16.285 2°36.688 6.2 279 8.1 100950 86
2002-12-03 12:30:23 51°16.286 2°36.69 6.7 275 8.1 100950 86
2002-12-03 12:30:28 51°16.286 2°36.692 6.6 274 8.1 100950 86
2002-12-03 12:30:33 51°16.286 2°36.693 7.4 268 8 100950 86
2002-12-03 12:30:38 51°16.287 2°36.695 7.2 270 8 100950 86
2002-12-03 12:30:42 51°16.286 2°36.696 8.1 273 8 100950 86
2002-12-03 12:30:48 51°16.286 2°36.697 7.7 275 8 100950 86
2002-12-03 12:30:53 51°16.286 2°36.698 8.4 275 8 100950 86
2002-12-03 12:30:58 51°16.285 2°36.699 8.1 274 8 100940 86
2002-12-03 12:31:03 51°16.284 2°36.699 8.4 275 8 100940 86
2002-12-03 12:31:08 51°16.282 2°36.7 7.8 277 8 100940 86
2002-12-03 12:31:13 51°16.282 2°36.701 7.8 270 8 100940 86
2002-12-03 12:31:18 51°16.281 2°36.7 7.6 272 8 100940 86
2002-12-03 12:31:22 51°16.28 2°36.7 7.3 276 8 100940 86
2002-12-03 12:31:28 51°16.278 2°36.7 8 284 8 100940 86
2002-12-03 12:31:33 51°16.276 2°36.699 8 277 8 100940 86
2002-12-03 12:31:38 51°16.275 2°36.699 7.6 281 8 100950 86
2002-12-03 12:31:43 51°16.274 2°36.698 7.9 284 8 100950 86
2002-12-03 12:31:47 51°16.273 2°36.697 8 285 8 100950 86
2002-12-03 12:31:53 51°16.271 2°36.696 8 287 8 100950 86
2002-12-03 12:31:58 51°16.27 2°36.694 7.8 290 8 100940 86
2002-12-03 12:32:02 51°16.269 2°36.693 7.6 290 8 100940 86
2002-12-03 12:32:08 51°16.267 2°36.691 8.1 287 8 100940 86
2002-12-03 12:32:13 51°16.266 2°36.689 8.1 291 8 100940 86
2002-12-03 12:32:18 51°16.265 2°36.687 8.1 290 8 100950 86
2002-12-03 12:32:23 51°16.263 2°36.685 8.1 294 8 100950 86
2002-12-03 12:32:28 51°16.262 2°36.683 8.9 297 8 100940 86
2002-12-03 12:32:33 51°16.261 2°36.68 8.8 295 8 100940 86
2002-12-03 12:32:38 51°16.26 2°36.678 8 296 8 100950 86
2002-12-03 12:32:43 51°16.26 2°36.675 8.4 294 8 100950 86
2002-12-03 12:32:48 51°16.259 2°36.673 7.9 295 8 100950 86
2002-12-03 12:32:53 51°16.258 2°36.67 8 294 8 100950 86
2002-12-03 12:32:58 51°16.257 2°36.666 8 295 8 100940 86
2002-12-03 12:33:02 51°16.257 2°36.664 8.2 296 8 100940 86
2002-12-03 12:33:08 51°16.256 2°36.66 8.1 294 8 100950 86
2002-12-03 12:33:13 51°16.256 2°36.657 8 297 8 100950 86
2002-12-03 12:33:18 51°16.255 2°36.653 8.1 297 8 100950 86
2002-12-03 12:33:22 51°16.255 2°36.65 7.4 303 8 100950 86
2002-12-03 12:33:28 51°16.255 2°36.646 6.9 301 7.9 100950 86
2002-12-03 12:33:33 51°16.256 2°36.642 8.4 301 7.9 100950 86
2002-12-03 12:33:38 51°16.256 2°36.638 6.5 304 7.9 100950 86
2002-12-03 12:33:42 51°16.257 2°36.636 4.9 305 7.9 100950 86
2002-12-03 12:33:48 51°16.258 2°36.631 3 308 7.9 100950 86
2002-12-03 12:33:53 51°16.259 2°36.628 2.4 316 7.9 100950 86
2002-12-03 12:33:58 51°16.26 2°36.623 2.5 305 7.9 100950 86
2002-12-03 12:34:03 51°16.26 2°36.619 2.5 317 7.9 100950 86
2002-12-03 12:34:08 51°16.262 2°36.615 5.8 315 7.9 100950 86
2002-12-03 12:34:13 51°16.262 2°36.611 4.4 294 7.9 100950 86
2002-12-03 12:34:18 51°16.264 2°36.607 3.9 299 7.9 100950 86
2002-12-03 12:34:22 51°16.264 2°36.603 3.8 319 7.9 100950 86
2002-12-03 12:34:28 51°16.266 2°36.598 3.7 304 7.9 100950 86
2002-12-03 12:34:33 51°16.268 2°36.594 2.7 307 7.9 100950 86
2002-12-03 12:34:38 51°16.27 2°36.589 2.2 322 7.9 100960 86
2002-12-03 12:34:42 51°16.271 2°36.586 2.2 307 7.9 100960 86
2002-12-03 12:34:48 51°16.273 2°36.581 1.1 318 7.9 100950 86
2002-12-03 12:34:53 51°16.275 2°36.576 1 318 7.9 100950 86
2002-12-03 12:34:58 51°16.278 2°36.572 0.8 335 7.9 100960 86
2002-12-03 12:35:02 51°16.279 2°36.569 1.2 331 7.9 100960 86
2002-12-03 12:35:08 51°16.282 2°36.564 1.7 338 7.9 100950 86
2002-12-03 12:35:13 51°16.285 2°36.561 1.3 339 7.9 100950 86
2002-12-03 12:35:18 51°16.287 2°36.557 2.5 342 7.9 100950 86
2002-12-03 12:35:22 51°16.29 2°36.554 3 347 7.9 100950 86
2002-12-03 12:35:28 51°16.293 2°36.549 1.9 337 7.9 100950 86
2002-12-03 12:35:33 51°16.296 2°36.546 3.6 348 7.8 100960 86
2002-12-03 12:35:38 51°16.299 2°36.543 3.7 352 7.8 100960 86
2002-12-03 12:35:42 51°16.302 2°36.54 5 346 7.8 100960 86
2002-12-03 12:35:48 51°16.306 2°36.537 5.4 352 7.8 100960 86
2002-12-03 12:35:53 51°16.308 2°36.534 4.1 344 7.8 100960 86
2002-12-03 12:35:58 51°16.312 2°36.531 5.1 359 7.9 100960 86
2002-12-03 12:36:02 51°16.314 2°36.529 3.8 340 7.9 100960 86
2002-12-03 12:36:08 51°16.319 2°36.526 6.2 352 7.8 100960 86
2002-12-03 12:36:13 51°16.322 2°36.524 6 351 7.8 100960 86
2002-12-03 12:36:18 51°16.325 2°36.522 6.3 356 7.9 100960 86
2002-12-03 12:36:22 51°16.328 2°36.52 6.4 1 7.9 100960 86
2002-12-03 12:36:28 51°16.332 2°36.518 6.1 2 7.9 100960 86
2002-12-03 12:36:33 51°16.336 2°36.516 5.5 9 7.9 100950 86
2002-12-03 12:36:38 51°16.34 2°36.514 5.6 6 7.9 100960 86
2002-12-03 12:36:42 51°16.342 2°36.512 5.1 9 7.9 100960 86
2002-12-03 12:36:48 51°16.347 2°36.51 5.9 8 7.8 100960 86
2002-12-03 12:36:53 51°16.35 2°36.509 5 352 7.8 100960 86
2002-12-03 12:36:58 51°16.354 2°36.507 5.7 358 7.8 100960 86
2002-12-03 12:37:02 51°16.356 2°36.506 4.1 7 7.8 100960 86
2002-12-03 12:37:08 51°16.361 2°36.504 5.3 3 7.8 100960 86
2002-12-03 12:37:13 51°16.364 2°36.502 6.1 355 7.8 100960 86
2002-12-03 12:37:18 51°16.368 2°36.501 4.8 359 7.9 100950 86
2002-12-03 12:37:22 51°16.371 2°36.5 5.4 350 7.9 100950 86
2002-12-03 12:37:28 51°16.375 2°36.498 5.4 360 7.9 100950 86
2002-12-03 12:37:33 51°16.379 2°36.497 5 4 7.9 100950 86
2002-12-03 12:37:38 51°16.383 2°36.496 5.4 4 7.9 100960 86
2002-12-03 12:37:42 51°16.386 2°36.495 5.1 6 7.9 100960 86
2002-12-03 12:37:48 51°16.39 2°36.494 5.5 10 7.9 100960 87
2002-12-03 12:37:53 51°16.394 2°36.493 5 7 7.9 100960 87
2002-12-03 12:37:58 51°16.398 2°36.491 5.6 359 7.9 100950 87
2002-12-03 12:38:03 51°16.402 2°36.491 5.4 1 7.9 100950 87
2002-12-03 12:38:08 51°16.405 2°36.49 4.9 357 7.9 100960 87
2002-12-03 12:38:13 51°16.409 2°36.489 4.8 6 7.9 100960 87
2002-12-03 12:38:18 51°16.413 2°36.488 5 9 7.9 100960 86
2002-12-03 12:38:22 51°16.416 2°36.488 4.8 5 7.9 100960 86
2002-12-03 12:38:28 51°16.421 2°36.487 5.1 9 7.9 100950 86
2002-12-03 12:38:33 51°16.425 2°36.487 5.5 15 7.9 100950 86
2002-12-03 12:38:38 51°16.429 2°36.486 5.2 14 7.9 100960 86
2002-12-03 12:38:42 51°16.432 2°36.486 5.1 11 7.9 100960 86
2002-12-03 12:38:48 51°16.437 2°36.485 5 13 7.9 100960 86
2002-12-03 12:38:53 51°16.441 2°36.484 5.2 14 7.9 100960 86
2002-12-03 12:38:58 51°16.445 2°36.484 5.4 17 7.9 100950 86
2002-12-03 12:39:02 51°16.448 2°36.483 5 15 7.9 100950 86
2002-12-03 12:39:08 51°16.453 2°36.482 4.9 16 7.8 100960 86
2002-12-03 12:39:13 51°16.457 2°36.482 4.3 14 7.8 100960 86
2002-12-03 12:39:18 51°16.46 2°36.481 4.3 11 7.8 100960 86
2002-12-03 12:39:23 51°16.464 2°36.48 4.8 14 7.8 100960 86
2002-12-03 12:39:28 51°16.467 2°36.48 5.1 357 7.9 100960 86
2002-12-03 12:39:33 51°16.471 2°36.479 6.1 11 7.9 100960 86
2002-12-03 12:39:38 51°16.475 2°36.479 5.6 10 7.9 100960 86
2002-12-03 12:39:43 51°16.479 2°36.478 5.6 15 7.9 100960 86
2002-12-03 12:39:48 51°16.483 2°36.478 5.6 14 7.9 100960 86
2002-12-03 12:39:53 51°16.487 2°36.477 5.7 16 7.9 100960 86
2002-12-03 12:39:58 51°16.491 2°36.477 5.4 14 7.9 100960 86
2002-12-03 12:40:03 51°16.494 2°36.477 5.3 17 7.9 100960 86
2002-12-03 12:40:08 51°16.498 2°36.476 5.3 14 7.8 100960 86
2002-12-03 12:40:13 51°16.502 2°36.476 4.8 18 7.8 100960 86
2002-12-03 12:40:18 51°16.506 2°36.475 4.9 17 7.8 100960 86
2002-12-03 12:40:23 51°16.51 2°36.475 5.1 16 7.8 100960 86
2002-12-03 12:40:28 51°16.514 2°36.475 5 20 7.8 100960 86
2002-12-03 12:40:33 51°16.518 2°36.475 5.2 24 7.8 100960 86
2002-12-03 12:40:38 51°16.522 2°36.474 4.6 31 7.8 100960 86
2002-12-03 12:40:43 51°16.526 2°36.475 4.1 31 7.8 100960 86
2002-12-03 12:40:48 51°16.531 2°36.474 3.9 34 7.8 100960 86
2002-12-03 12:40:53 51°16.535 2°36.475 4.8 42 7.8 100960 86
2002-12-03 12:40:58 51°16.539 2°36.475 4.6 41 7.8 100970 86
2002-12-03 12:41:02 51°16.542 2°36.475 4.1 42 7.8 100970 86
2002-12-03 12:41:08 51°16.547 2°36.476 4.4 44 7.8 100960 86
2002-12-03 12:41:13 51°16.551 2°36.476 4.8 57 7.8 100960 86
2002-12-03 12:41:18 51°16.555 2°36.477 4.8 129 7.8 100970 86
2002-12-03 12:41:22 51°16.559 2°36.477 4.6 52 7.8 100970 86
2002-12-03 12:41:28 51°16.563 2°36.478 4.7 57 7.8 100970 86
2002-12-03 12:41:33 51°16.568 2°36.479 5.4 53 7.8 100970 86
2002-12-03 12:41:38 51°16.572 2°36.48 5.2 58 7.9 100970 87
2002-12-03 12:41:42 51°16.575 2°36.481 4.8 59 7.9 100970 87
2002-12-03 12:41:48 51°16.581 2°36.482 4.5 58 7.8 100970 87
2002-12-03 12:41:53 51°16.585 2°36.484 4.4 63 7.8 100970 87
2002-12-03 12:41:58 51°16.59 2°36.485 4.8 66 7.9 100970 86
2002-12-03 12:42:02 51°16.593 2°36.486 4.7 67 7.9 100970 86
2002-12-03 12:42:06 51°16.597 2°36.488 4.4 68 7.8 100970 86
2002-12-03 12:42:13 51°16.603 2°36.49 4.7 66 7.8 100970 86
2002-12-03 12:42:18 51°16.608 2°36.492 5.2 70 7.9 100970 86
2002-12-03 12:42:22 51°16.611 2°36.494 4.5 78 7.9 100970 86
2002-12-03 12:42:28 51°16.616 2°36.496 5.2 80 7.9 100970 86
2002-12-03 12:42:33 51°16.62 2°36.499 4.9 79 7.9 100970 86
2002-12-03 12:42:38 51°16.625 2°36.501 5 81 7.8 100970 86
2002-12-03 12:42:42 51°16.628 2°36.503 5.6 77 7.8 100970 86
2002-12-03 12:42:48 51°16.633 2°36.506 5.6 73 7.9 100970 86
2002-12-03 12:42:53 51°16.638 2°36.509 5.5 83 7.9 100970 86
2002-12-03 12:42:58 51°16.642 2°36.512 4.9 76 7.9 100970 86
2002-12-03 12:43:02 51°16.645 2°36.514 5.2 75 7.9 100970 86
2002-12-03 12:43:08 51°16.65 2°36.518 5 76 7.9 100970 86
2002-12-03 12:43:13 51°16.655 2°36.521 4.8 79 7.9 100970 86
2002-12-03 12:43:18 51°16.659 2°36.524 5.1 82 7.9 100970 86
2002-12-03 12:43:22 51°16.662 2°36.526 5.2 87 7.9 100970 86